Time;durP1;ratioP1;P1;durP2;ratioP2;P2;SDS_P1;SDS_P2;PMS_P1;PMS_P2;Temp;Humidity;BMP_temperature;BMP_pressure;BME280_temperature;BME280_humidity;BME280_pressure;Samples;Min_cycle;Max_cycle;Signal;HPM_P1;HPM_P2
2021/05/26 00:00:34;;;;;;;;;;;;;;;;;;;;;
2021/05/26 00:03:53;;;;;;;;;;;;;;;;;;;;;
2021/05/26 00:09:47;;;;;;;7.25;4.63;;;10.60;91.70;;;;;;6196098;23;20008;-90
2021/05/26 00:12:42;;;;;;;5.07;3.40;;;10.50;91.50;;;;;;6216714;23;20087;-88
2021/05/26 00:15:17;;;;;;;5.78;2.83;;;10.60;91.40;;;;;;6215780;23;20335;-88
2021/05/26 00:18:17;;;;;;;4.50;1.98;;;10.50;91.20;;;;;;6216817;23;19996;-88
2021/05/26 00:21:36;;;;;;;;;;;;;;;;;;;;;
2021/05/26 00:37:35;;;;;;;1.52;1.02;;;10.40;90.80;;;;;;6214373;23;20009;-90
2021/05/26 00:43:49;;;;;;;;;;;;;;;;;;;;;
2021/05/26 00:47:03;;;;;;;;;;;;;;;;;;;;;
2021/05/26 00:52:37;;;;;;;2.42;1.27;;;10.30;90.50;;;;;;6200340;23;20117;-89
2021/05/26 00:55:46;;;;;;;1.38;1.23;;;10.30;90.60;;;;;;6190398;23;20067;-89
2021/05/26 00:58:34;;;;;;;2.20;1.15;;;10.30;90.70;;;;;;6215707;23;20070;-88
2021/05/26 01:01:43;;;;;;;;;;;;;;;;;;;;;
2021/05/26 01:04:39;;;;;;;;;;;;;;;;;;;;;
2021/05/26 01:10:55;;;;;;;;;;;;;;;;;;;;;
2021/05/26 01:13:48;;;;;;;;;;;;;;;;;;;;;
2021/05/26 01:17:01;;;;;;;2.08;1.30;;;10.20;91.10;;;;;;6216785;23;20087;-89
2021/05/26 01:23:02;;;;;;;3.28;1.38;;;10.20;91.20;;;;;;6191003;23;20450;-89
2021/05/26 01:26:36;;;;;;;;;;;;;;;;;;;;;
2021/05/26 01:29:10;;;;;;;3.20;1.67;;;10.20;91.60;;;;;;6212705;23;20078;-90
2021/05/26 01:32:19;;;;;;;2.08;1.50;;;10.20;91.30;;;;;;6214798;23;20063;-89
2021/05/26 01:35:10;;;;;;;2.90;1.60;;;10.20;91.30;;;;;;6215885;23;20005;-90
2021/05/26 01:37:52;;;;;;;3.05;1.80;;;10.20;91.40;;;;;;6176682;23;20005;-89
2021/05/26 01:40:28;;;;;;;2.75;1.70;;;10.10;91.50;;;;;;6215431;23;20027;-90
2021/05/26 01:43:16;;;;;;;;;;;;;;;;;;;;;
2021/05/26 01:49:03;;;;;;;2.65;2.15;;;10.10;91.80;;;;;;6188370;23;20005;-88
2021/05/26 01:51:57;;;;;;;4.43;2.25;;;10.10;91.80;;;;;;6214641;23;20373;-89
2021/05/26 01:54:54;;;;;;;;;;;;;;;;;;;;;
2021/05/26 01:57:51;;;;;;;;;;;;;;;;;;;;;
2021/05/26 02:00:39;;;;;;;2.83;2.03;;;10.10;92.10;;;;;;6216507;23;20088;-91
2021/05/26 02:12:32;;;;;;;;;;;10.10;92.20;;;;;;6217413;23;20005;-89
2021/05/26 02:15:34;;;;;;;;;;;;;;;;;;;;;
2021/05/26 02:18:14;;;;;;;3.50;2.05;;;10.10;92.30;;;;;;6216669;23;20087;-89
2021/05/26 02:21:17;;;;;;;3.60;2.33;;;10.10;92.30;;;;;;6214888;23;20366;-90
2021/05/26 02:24:11;;;;;;;3.70;2.47;;;10.10;92.30;;;;;;6217495;23;20012;-90
2021/05/26 02:27:22;;;;;;;3.58;2.10;;;10.10;92.30;;;;;;6212632;23;20013;-90
2021/05/26 02:30:26;;;;;;;;;;;;;;;;;;;;;
2021/05/26 02:33:45;;;;;;;;;;;;;;;;;;;;;
2021/05/26 02:40:35;;;;;;;5.55;2.80;;;10.20;92.40;;;;;;6169178;23;20014;-89
2021/05/26 02:43:25;;;;;;;;;;;;;;;;;;;;;
2021/05/26 02:53:35;;;;;;;7.68;3.28;;;10.20;92.50;;;;;;6185978;23;20012;-91
2021/05/26 03:00:25;;;;;;;5.60;4.05;;;10.20;92.50;;;;;;6107778;23;20040;-90
2021/05/26 03:03:52;;;;;;;;;;;;;;;;;;;;;
2021/05/26 03:07:00;;;;;;;;;;;;;;;;;;;;;
2021/05/26 03:10:19;;;;;;;;;;;;;;;;;;;;;
2021/05/26 03:19:34;;;;;;;;;;;;;;;;;;;;;
2021/05/26 03:22:36;;;;;;;;;;;;;;;;;;;;;
2021/05/26 03:25:48;;;;;;;10.23;6.28;;;10.30;92.70;;;;;;6215091;23;20075;-90
2021/05/26 03:29:13;;;;;;;12.50;6.78;;;10.30;92.70;;;;;;6216628;23;20071;-89
2021/05/26 03:35:32;;;;;;;11.48;6.28;;;10.30;92.70;;;;;;6212505;23;20492;-90
2021/05/26 03:42:08;;;;;;;;;;;;;;;;;;;;;
2021/05/26 03:44:42;;;;;;;;;;;;;;;;;;;;;
2021/05/26 03:47:22;;;;;;;;;;;;;;;;;;;;;
2021/05/26 03:54:08;;;;;;;;;;;;;;;;;;;;;
2021/05/26 03:56:59;;;;;;;15.50;8.55;;;10.40;92.90;;;;;;6196048;23;20048;-91
2021/05/26 04:00:05;;;;;;;14.80;9.05;;;10.50;92.90;;;;;;6186047;23;20015;-90
2021/05/26 04:03:14;;;;;;;12.88;8.35;;;10.50;92.90;;;;;;6215167;23;20008;-90
2021/05/26 04:13:13;;;;;;;16.63;10.40;;;10.50;92.90;;;;;;6069675;23;20416;-89
2021/05/26 04:15:59;;;;;;;16.50;10.30;;;10.50;92.90;;;;;;6069503;23;20389;-89
2021/05/26 04:18:36;;;;;;;17.38;10.32;;;10.50;92.80;;;;;;6070239;23;20011;-89
2021/05/26 04:21:48;;;;;;;15.68;9.68;;;10.60;92.90;;;;;;6068782;23;20007;-89
2021/05/26 04:30:56;;;;;;;15.18;9.57;;;10.60;92.80;;;;;;6193096;23;20302;-92
2021/05/26 04:33:30;;;;;;;17.55;8.18;;;10.60;92.80;;;;;;6215582;23;20016;-91
2021/05/26 04:36:19;;;;;;;14.23;7.65;;;10.60;92.80;;;;;;6190882;23;20009;-88
2021/05/26 04:39:01;;;;;;;12.77;6.55;;;10.60;92.80;;;;;;6216366;23;20027;-90
2021/05/26 04:41:43;;;;;;;;;;;;;;;;;;;;;
2021/05/26 04:44:43;;;;;;;11.07;6.07;;;10.60;92.70;;;;;;6216072;23;20080;-90
2021/05/26 04:47:19;;;;;;;12.32;6.28;;;10.60;92.70;;;;;;6215758;23;20501;-90
2021/05/26 04:50:16;;;;;;;10.80;5.95;;;10.60;92.60;;;;;;6216317;23;20485;-89
2021/05/26 04:53:21;;;;;;;11.43;6.40;;;10.60;92.60;;;;;;6121579;23;20005;-89
2021/05/26 04:56:21;;;;;;;12.43;5.65;;;10.60;92.60;;;;;;6215233;23;20013;-90
2021/05/26 04:59:11;;;;;;;;;;;;;;;;;;;;;
2021/05/26 05:02:34;;;;;;;10.27;5.45;;;10.60;92.40;;;;;;6216034;23;20359;-89
2021/05/26 05:05:23;;;;;;;11.68;5.93;;;10.60;92.50;;;;;;6214744;23;20004;-89
2021/05/26 05:10:55;;;;;;;8.60;5.40;;;10.60;92.40;;;;;;6205428;23;20005;-86
2021/05/26 05:13:41;;;;;;;;;;;;;;;;;;;;;
2021/05/26 05:16:32;;;;;;;12.23;5.43;;;10.60;92.30;;;;;;6215100;23;20091;-87
2021/05/26 05:19:22;;;;;;;17.17;10.55;;;10.70;92.30;;;;;;6215526;23;20005;-87
2021/05/26 05:24:53;;;;;;;13.73;6.40;;;10.60;92.30;;;;;;6167649;23;20005;-87
2021/05/26 05:27:59;;;;;;;;;;;;;;;;;;;;;
2021/05/26 05:30:51;;;;;;;;;;;;;;;;;;;;;
2021/05/26 05:33:59;;;;;;;;;;;;;;;;;;;;;
2021/05/26 05:36:50;;;;;;;9.38;5.70;;;10.70;92.20;;;;;;6215058;23;20139;-86
2021/05/26 05:39:53;;;;;;;12.63;5.90;;;10.70;92.20;;;;;;6216313;23;20024;-88
2021/05/26 05:42:41;;;;;;;10.50;6.05;;;10.70;92.20;;;;;;6187620;23;20008;-87
2021/05/26 05:48:50;;;;;;;;;;;;;;;;;;;;;
2021/05/26 05:51:28;;;;;;;12.38;5.68;;;10.80;92.20;;;;;;6193423;23;20091;-88
2021/05/26 05:54:22;;;;;;;;;;;;;;;;;;;;;
2021/05/26 05:57:12;;;;;;;;;;;;;;;;;;;;;
2021/05/26 06:00:04;;;;;;;9.50;5.73;;;10.80;92.10;;;;;;6192134;23;20083;-88
2021/05/26 06:13:06;;;;;;;;;;;;;;;;;;;;;
2021/05/26 06:19:41;;;;;;;;;;;;;;;;;;;;;
2021/05/26 06:22:38;;;;;;;;;;;;;;;;;;;;;
2021/05/26 06:25:39;;;;;;;;;;;;;;;;;;;;;
2021/05/26 06:28:22;;;;;;;10.98;6.47;;;10.90;92.10;;;;;;6214407;23;20080;-88
2021/05/26 06:34:53;;;;;;;;;;;;;;;;;;;;;
2021/05/26 06:37:45;;;;;;;11.95;7.20;;;10.90;92.00;;;;;;6215449;23;20084;-89
2021/05/26 06:43:13;;;;;;;11.07;6.80;;;10.90;91.90;;;;;;6203928;23;20035;-89
2021/05/26 06:46:03;;;;;;;;;;;;;;;;;;;;;
2021/05/26 06:49:13;;;;;;;18.65;11.00;;;11.00;91.90;;;;;;6213653;23;20072;-89
2021/05/26 06:51:54;;;;;;;14.90;7.90;;;11.00;91.90;;;;;;6214616;23;20055;-90
2021/05/26 06:54:38;;;;;;;12.30;7.50;;;11.00;92.00;;;;;;6189772;23;20039;-88
2021/05/26 06:57:26;;;;;;;12.93;7.72;;;11.00;92.00;;;;;;6186451;23;20461;-88
2021/05/26 07:00:03;;;;;;;13.32;7.38;;;11.10;92.10;;;;;;6213674;23;20322;-88
2021/05/26 07:02:38;;;;;;;12.77;7.18;;;11.10;92.00;;;;;;6214000;23;20000;-89
2021/05/26 07:08:23;;;;;;;;;;;;;;;;;;;;;
2021/05/26 07:10:59;;;;;;;10.20;7.38;;;11.40;91.90;;;;;;6212913;23;20317;-88
2021/05/26 07:13:31;;;;;;;11.75;7.28;;;11.50;91.90;;;;;;6214009;23;20004;-89
2021/05/26 07:16:44;;;;;;;11.30;7.97;;;11.60;91.90;;;;;;6213812;23;20013;-88
2021/05/26 07:20:01;;;;;;;11.85;8.40;;;11.60;91.90;;;;;;6207608;23;20462;-88
2021/05/26 07:22:57;;;;;;;14.60;8.85;;;11.70;91.80;;;;;;6202778;23;20008;-89
2021/05/26 07:26:05;;;;;;;;;;;;;;;;;;;;;
2021/05/26 07:28:36;;;;;;;13.88;8.52;;;11.70;91.50;;;;;;6213324;23;20104;-88
2021/05/26 07:31:19;;;;;;;11.52;9.13;;;11.70;91.30;;;;;;6187354;23;20031;-88
2021/05/26 07:37:16;;;;;;;;;;;;;;;;;;;;;
2021/05/26 07:39:56;;;;;;;12.43;8.10;;;11.80;91.20;;;;;;6191556;23;20091;-88
2021/05/26 07:43:03;;;;;;;12.85;8.75;;;11.90;91.00;;;;;;6213573;23;19997;-88
2021/05/26 07:45:47;;;;;;;;;;;;;;;;;;;;;
2021/05/26 07:51:30;;;;;;;10.02;8.73;;;12.00;90.90;;;;;;6168525;23;20032;-89
2021/05/26 07:54:53;;;;;;;;;;;;;;;;;;;;;
2021/05/26 07:57:41;;;;;;;;;;;;;;;;;;;;;
2021/05/26 08:00:23;;;;;;;12.27;8.68;;;12.20;91.00;;;;;;6212472;23;20091;-89
2021/05/26 08:03:31;;;;;;;10.18;9.13;;;12.20;90.90;;;;;;6212822;23;20351;-89
2021/05/26 08:09:14;;;;;;;11.98;8.63;;;12.40;90.70;;;;;;6213699;23;20012;-89
2021/05/26 08:12:26;;;;;;;;;;;;;;;;;;;;;
2021/05/26 08:15:38;;;;;;;;;;;;;;;;;;;;;
2021/05/26 08:18:22;;;;;;;9.82;7.82;;;12.50;90.30;;;;;;6208087;23;20024;-89
2021/05/26 08:21:21;;;;;;;9.07;7.28;;;12.60;90.10;;;;;;6190521;23;20020;-89
2021/05/26 08:24:15;;;;;;;11.02;6.78;;;12.70;90.10;;;;;;6167144;23;20004;-90
2021/05/26 08:30:41;;;;;;;;;;;;;;;;;;;;;
2021/05/26 08:36:49;;;;;;;;;;;;;;;;;;;;;
2021/05/26 08:44:13;;;;;;;;;;;;;;;;;;;;;
2021/05/26 08:47:03;;;;;;;10.10;8.30;;;13.10;88.40;;;;;;6208052;23;20012;-88
2021/05/26 08:49:57;;;;;;;9.90;7.78;;;13.20;87.70;;;;;;6189776;23;20040;-88
2021/05/26 08:52:34;;;;;;;9.88;7.57;;;13.20;87.70;;;;;;6176994;23;20000;-89
2021/05/26 08:56:03;;;;;;;10.38;6.90;;;13.20;87.40;;;;;;6214332;23;20096;-91
2021/05/26 09:13:06;;;;;;;;;;;;;;;;;;;;;
2021/05/26 09:23:10;;;;;;;10.00;6.65;;;13.60;86.00;;;;;;6185226;23;20032;-92
2021/05/26 09:32:36;;;;;;;;;;;;;;;;;;;;;
2021/05/26 09:36:10;;;;;;;;;;;;;;;;;;;;;
2021/05/26 09:38:57;;;;;;;;;;;;;;;;;;;;;
2021/05/26 09:42:37;;;;;;;;;;;;;;;;;;;;;
2021/05/26 09:55:35;;;;;;;;;;;;;;;;;;;;;
2021/05/26 09:58:42;;;;;;;7.22;4.75;;;14.50;81.60;;;;;;6199737;23;20095;-90
2021/05/26 10:01:58;;;;;;;;;;;;;;;;;;;;;
2021/05/26 10:07:49;;;;;;;;;;;;;;;;;;;;;
2021/05/26 10:10:56;;;;;;;;;;;;;;;;;;;;;
2021/05/26 10:13:38;;;;;;;6.68;5.32;;;14.70;79.60;;;;;;6215840;23;20084;-90
2021/05/26 10:16:32;;;;;;;8.55;5.57;;;14.70;79.30;;;;;;6214416;23;20072;-90
2021/05/26 10:19:35;;;;;;;7.13;4.72;;;14.70;79.40;;;;;;6190137;23;20008;-89
2021/05/26 10:22:23;;;;;;;7.20;5.45;;;14.70;79.70;;;;;;6181853;23;20004;-90
2021/05/26 10:24:58;;;;;;;8.40;6.32;;;14.80;80.20;;;;;;6213996;23;20015;-90
2021/05/26 10:28:13;;;;;;;;;;;;;;;;;;;;;
2021/05/26 10:30:59;;;;;;;10.35;7.03;;;14.90;80.50;;;;;;6216207;23;20079;-90
2021/05/26 10:33:56;;;;;;;9.45;5.88;;;14.90;79.40;;;;;;6212168;23;20031;-89
2021/05/26 10:37:10;;;;;;;3.30;2.25;;;15.00;78.40;;;;;;6214043;23;20040;-91
2021/05/26 10:43:36;;;;;;;2.13;1.00;;;14.60;74.30;;;;;;6192831;23;20017;-89
2021/05/26 10:46:05;;;;;;;1.50;0.95;;;14.30;74.40;;;;;;6212696;23;20008;-91
2021/05/26 10:48:57;;;;;;;3.90;1.00;;;14.00;75.80;;;;;;6212321;23;20039;-89
2021/05/26 11:02:27;;;;;;;2.30;1.50;;;13.00;80.60;;;;;;6089321;23;20042;-88
2021/05/26 11:05:37;;;;;;;2.40;1.60;;;12.80;81.10;;;;;;6145732;23;20028;-90
2021/05/26 11:08:42;;;;;;;;;;;12.70;82.40;;;;;;6214140;23;20009;-87
2021/05/26 11:11:28;;;;;;;2.92;1.10;;;12.60;83.10;;;;;;6189221;23;19931;-90
2021/05/26 11:14:17;;;;;;;3.55;1.40;;;12.50;83.40;;;;;;6215507;23;19997;-89
2021/05/26 11:17:19;;;;;;;;;;;;;;;;;;;;;
2021/05/26 11:20:20;;;;;;;2.67;1.42;;;12.50;84.50;;;;;;6214963;23;20076;-89
2021/05/26 11:23:19;;;;;;;2.08;1.42;;;12.50;84.90;;;;;;6188026;23;20001;-90
2021/05/26 11:25:55;;;;;;;2.15;1.30;;;12.60;86.10;;;;;;6183273;23;20092;-91
2021/05/26 11:29:10;;;;;;;1.55;1.27;;;12.70;86.60;;;;;;6212711;23;20005;-88
2021/05/26 11:35:18;;;;;;;;;;;;;;;;;;;;;
2021/05/26 11:48:24;;;;;;;3.38;2.40;;;13.50;86.00;;;;;;6056650;23;20322;-88
2021/05/26 11:57:30;;;;;;;;;;;;;;;;;;;;;
2021/05/26 12:00:17;;;;;;;5.10;2.25;;;13.60;84.50;;;;;;6069609;23;20090;-90
2021/05/26 12:06:24;;;;;;;4.00;2.40;;;13.30;85.60;;;;;;6058301;23;20067;-89
2021/05/26 12:09:26;;;;;;;;;;;;;;;;;;;;;
2021/05/26 12:12:47;;;;;;;;;;;;;;;;;;;;;
2021/05/26 12:15:40;;;;;;;;;;;;;;;;;;;;;
2021/05/26 12:21:43;;;;;;;;;;;;;;;;;;;;;
2021/05/26 12:24:51;;;;;;;7.47;3.55;;;12.90;88.60;;;;;;6190671;23;20080;-90
2021/05/26 12:28:21;;;;;;;5.07;3.00;;;12.90;89.20;;;;;;6217390;23;20012;-90
2021/05/26 12:34:46;;;;;;;6.47;2.90;;;13.10;89.60;;;;;;6151911;23;20017;-89
2021/05/26 12:37:50;;;;;;;7.15;3.20;;;13.30;90.10;;;;;;6193828;23;20016;-88
2021/05/26 12:41:03;;;;;;;2.60;2.00;;;13.40;90.30;;;;;;6217150;23;19996;-88
2021/05/26 12:44:07;;;;;;;;;;;;;;;;;;;;;
2021/05/26 12:46:43;;;;;;;1.85;1.17;;;13.40;88.20;;;;;;6217876;23;20076;-88
2021/05/26 12:49:43;;;;;;;1.50;1.40;;;13.40;87.60;;;;;;6216762;23;20008;-89
2021/05/26 12:56:22;;;;;;;;;;;;;;;;;;;;;
2021/05/26 13:03:01;;;;;;;;;;;;;;;;;;;;;
2021/05/26 13:10:05;;;;;;;2.30;1.27;;;13.80;85.50;;;;;;6069575;23;20095;-89
2021/05/26 13:16:56;;;;;;;3.38;0.70;;;13.80;83.10;;;;;;6100935;23;20018;-89
2021/05/26 13:19:51;;;;;;;;;;;;;;;;;;;;;
2021/05/26 13:23:16;;;;;;;;;;;;;;;;;;;;;
2021/05/26 13:26:14;;;;;;;;;;;;;;;;;;;;;
2021/05/26 13:32:09;;;;;;;;;;;;;;;;;;;;;
2021/05/26 13:38:32;;;;;;;0.82;0.80;;;14.10;78.30;;;;;;6206378;23;20068;-89
2021/05/26 13:41:40;;;;;;;;;;;;;;;;;;;;;
2021/05/26 13:51:15;;;;;;;;;;;;;;;;;;;;;
2021/05/26 13:57:39;;;;;;;3.22;1.00;;;14.30;76.40;;;;;;6217040;23;20019;-89
2021/05/26 14:00:20;;;;;;;;;;;14.40;76.40;;;;;;6216428;23;20016;-87
2021/05/26 14:06:44;;;;;;;3.83;1.50;;;14.40;77.10;;;;;;6155551;23;20013;-90
2021/05/26 14:09:47;;;;;;;2.72;1.20;;;14.50;77.10;;;;;;6191696;23;20035;-89
2021/05/26 14:32:21;;;;;;;2.20;1.60;;;14.60;73.70;;;;;;6145448;23;20119;-89
2021/05/26 14:39:11;;;;;;;;;;;;;;;;;;;;;
2021/05/26 14:48:17;;;;;;;;;;;;;;;;;;;;;
2021/05/26 14:54:38;;;;;;;2.78;1.27;;;14.90;68.10;;;;;;6192593;23;20005;-89
2021/05/26 14:58:07;;;;;;;;;;;;;;;;;;;;;
2021/05/26 15:07:02;;;;;;;3.17;1.40;;;15.00;68.80;;;;;;6191966;23;20497;-89
2021/05/26 15:09:58;;;;;;;4.28;1.70;;;15.00;68.10;;;;;;6088421;23;20011;-90
2021/05/26 15:13:05;;;;;;;;;;;;;;;;;;;;;
2021/05/26 15:15:54;;;;;;;4.63;1.50;;;14.90;68.10;;;;;;6189440;23;20079;-92
2021/05/26 15:19:19;;;;;;;;;;;;;;;;;;;;;
2021/05/26 15:22:32;;;;;;;;;;;;;;;;;;;;;
2021/05/26 15:31:38;;;;;;;3.53;1.42;;;14.50;69.40;;;;;;6205624;23;20083;-90
2021/05/26 15:41:11;;;;;;;2.97;1.50;;;14.30;70.10;;;;;;6218583;23;20124;-90
2021/05/26 15:46:52;;;;;;;;;;;14.20;70.40;;;;;;6170819;23;20008;-88
2021/05/26 15:49:25;;;;;;;4.15;1.27;;;14.20;70.70;;;;;;6217400;23;20340;-90
2021/05/26 15:52:47;;;;;;;;;;;;;;;;;;;;;
2021/05/26 15:58:37;;;;;;;3.60;1.67;;;14.00;69.90;;;;;;6188700;23;20087;-89
2021/05/26 16:01:27;;;;;;;;;;;;;;;;;;;;;
2021/05/26 16:05:00;;;;;;;5.13;2.47;;;13.90;71.20;;;;;;6216194;23;20080;-89
2021/05/26 16:11:06;;;;;;;;;;;;;;;;;;;;;
2021/05/26 16:14:12;;;;;;;5.05;2.40;;;13.70;72.30;;;;;;6217972;23;20084;-88
2021/05/26 16:17:14;;;;;;;;;;;;;;;;;;;;;
2021/05/26 16:20:10;;;;;;;5.95;2.67;;;13.50;72.30;;;;;;6087381;23;20083;-88
2021/05/26 16:22:46;;;;;;;6.55;2.55;;;13.60;73.00;;;;;;6079340;23;20330;-91
2021/05/26 16:25:51;;;;;;;;;;;;;;;;;;;;;
2021/05/26 16:28:24;;;;;;;5.28;2.70;;;13.50;73.80;;;;;;6056857;23;20074;-90
2021/05/26 16:31:11;;;;;;;;;;;;;;;;;;;;;
2021/05/26 16:34:03;;;;;;;;;;;;;;;;;;;;;
2021/05/26 16:37:08;;;;;;;;;;;;;;;;;;;;;
2021/05/26 16:40:17;;;;;;;;;;;;;;;;;;;;;
2021/05/26 16:43:19;;;;;;;4.75;2.80;;;13.20;77.00;;;;;;6214804;23;20393;-87
2021/05/26 16:49:11;;;;;;;5.10;2.65;;;13.10;78.60;;;;;;6199604;23;20008;-88
2021/05/26 16:51:49;;;;;;;6.82;3.60;;;13.10;79.10;;;;;;6215652;23;20059;-88
2021/05/26 16:54:57;;;;;;;;;;;;;;;;;;;;;
2021/05/26 16:57:39;;;;;;;5.18;3.10;;;13.00;80.50;;;;;;6214051;23;20096;-88
2021/05/26 17:00:13;;;;;;;;;;;12.90;81.00;;;;;;6216205;23;20020;-89
2021/05/26 17:03:29;;;;;;;7.00;3.50;;;12.90;81.80;;;;;;6191178;23;20245;-88
2021/05/26 17:09:51;;;;;;;;;;;;;;;;;;;;;
2021/05/26 17:12:52;;;;;;;5.05;3.22;;;12.80;82.80;;;;;;6216221;23;20088;-89
2021/05/26 17:15:25;;;;;;;4.55;3.38;;;12.80;83.40;;;;;;6172892;23;20473;-87
2021/05/26 17:21:18;;;;;;;8.38;5.07;;;12.70;83.50;;;;;;6212716;23;20036;-89
2021/05/26 17:27:00;;;;;;;8.55;4.43;;;12.70;83.70;;;;;;6205129;23;20019;-88
2021/05/26 17:29:54;;;;;;;5.32;3.90;;;12.60;84.10;;;;;;6217012;23;20017;-89
2021/05/26 17:32:45;;;;;;;8.23;4.40;;;12.70;84.20;;;;;;6185982;23;20230;-88
2021/05/26 17:41:45;;;;;;;9.70;5.05;;;12.60;84.70;;;;;;6216630;23;20031;-87
2021/05/26 17:44:25;;;;;;;8.18;5.07;;;12.50;84.60;;;;;;6215932;23;20036;-88
2021/05/26 17:54:14;;;;;;;;;;;;;;;;;;;;;
2021/05/26 18:03:32;;;;;;;7.43;4.60;;;12.40;85.70;;;;;;6124666;23;20432;-89
2021/05/26 18:06:25;;;;;;;6.60;4.90;;;12.40;86.10;;;;;;6137418;23;20106;-88
2021/05/26 18:09:12;;;;;;;6.28;4.35;;;12.40;86.10;;;;;;6214377;23;20429;-87
2021/05/26 18:11:56;;;;;;;6.70;4.63;;;12.40;86.40;;;;;;6215784;23;20015;-88
2021/05/26 18:14:43;;;;;;;9.57;4.95;;;12.40;86.50;;;;;;6195651;23;20028;-88
2021/05/26 18:17:45;;;;;;;;;;;;;;;;;;;;;
2021/05/26 18:30:24;;;;;;;;;;;;;;;;;;;;;
2021/05/26 18:33:34;;;;;;;;;;;;;;;;;;;;;
2021/05/26 18:40:28;;;;;;;9.60;6.57;;;12.20;89.00;;;;;;6232254;23;20008;-91
2021/05/26 18:50:51;;;;;;;;;;;;;;;;;;;;;
2021/05/26 18:54:14;;;;;;;3.88;2.95;;;12.10;90.10;;;;;;6085379;23;20011;-90
2021/05/26 18:57:20;;;;;;;;;;;;;;;;;;;;;
2021/05/26 19:07:32;;;;;;;;;;;;;;;;;;;;;
2021/05/26 19:17:51;;;;;;;3.85;2.80;;;12.00;90.50;;;;;;6078203;23;20011;-90
2021/05/26 19:30:38;;;;;;;5.30;3.22;;;12.00;90.90;;;;;;6103518;23;19897;-90
2021/05/26 19:33:39;;;;;;;;;;;;;;;;;;;;;
2021/05/26 19:36:50;;;;;;;6.30;2.80;;;11.90;91.20;;;;;;6215115;23;20410;-89
2021/05/26 19:43:23;;;;;;;;;;;;;;;;;;;;;
2021/05/26 19:46:36;;;;;;;;;;;;;;;;;;;;;
2021/05/26 19:49:11;;;;;;;4.10;2.93;;;11.90;91.50;;;;;;6228461;23;20442;-89
2021/05/26 19:52:13;;;;;;;4.43;3.03;;;11.90;91.60;;;;;;6234184;23;20246;-87
2021/05/26 19:55:45;;;;;;;;;;;;;;;;;;;;;
2021/05/26 19:58:43;;;;;;;;;;;;;;;;;;;;;
2021/05/26 20:02:06;;;;;;;;;;;;;;;;;;;;;
2021/05/26 20:04:50;;;;;;;4.82;3.55;;;11.90;91.60;;;;;;6218462;23;20040;-89
2021/05/26 20:07:43;;;;;;;4.10;3.40;;;12.00;92.00;;;;;;6222965;23;20156;-89
2021/05/26 20:10:54;;;;;;;6.95;3.70;;;11.90;91.90;;;;;;6217596;23;20024;-89
2021/05/26 20:14:20;;;;;;;;;;;;;;;;;;;;;
2021/05/26 20:17:14;;;;;;;5.22;4.20;;;12.00;91.70;;;;;;6218645;23;20084;-88
2021/05/26 20:20:15;;;;;;;5.47;4.10;;;12.00;91.70;;;;;;6193393;23;20074;-89
2021/05/26 20:23:00;;;;;;;6.05;4.25;;;12.00;91.70;;;;;;6215231;23;20009;-88
2021/05/26 20:29:10;;;;;;;5.85;4.50;;;12.00;91.80;;;;;;6198603;23;20004;-90
2021/05/26 20:31:59;;;;;;;6.20;4.50;;;12.00;91.80;;;;;;6220731;23;20469;-88
2021/05/26 20:34:57;;;;;;;5.60;4.88;;;12.00;91.80;;;;;;6217214;23;20462;-89
2021/05/26 20:38:05;;;;;;;7.47;5.40;;;12.00;91.80;;;;;;6066165;23;20440;-88
2021/05/26 20:41:36;;;;;;;6.88;5.22;;;12.00;91.80;;;;;;6066414;23;20441;-87
2021/05/26 20:44:23;;;;;;;8.75;5.75;;;12.00;91.80;;;;;;6206355;23;20004;-87
2021/05/26 20:46:53;;;;;;;8.07;5.78;;;12.00;91.80;;;;;;6216131;23;20005;-86
2021/05/26 20:49:57;;;;;;;;;;;;;;;;;;;;;
2021/05/26 20:53:15;;;;;;;7.32;5.53;;;12.00;91.90;;;;;;6222524;23;20363;-87
2021/05/26 21:02:45;;;;;;;9.07;5.18;;;12.00;91.90;;;;;;6159128;23;20002;-86
2021/05/26 21:06:07;;;;;;;;;;;;;;;;;;;;;
2021/05/26 21:30:17;;;;;;;7.50;4.75;;;11.90;92.00;;;;;;6010765;23;20432;-86
2021/05/26 21:33:27;;;;;;;8.57;4.80;;;11.90;92.00;;;;;;5961077;23;20012;-87
2021/05/26 21:40:37;;;;;;;8.98;4.80;;;11.90;92.00;;;;;;5984018;23;20012;-86
2021/05/26 21:43:31;;;;;;;;;;;11.80;92.00;;;;;;6004400;23;20401;-88
2021/05/26 21:46:50;;;;;;;10.73;5.32;;;11.80;91.90;;;;;;5970681;24;20309;-87
2021/05/26 22:03:18;;;;;;;;;;;;;;;;;;;;;
2021/05/26 22:09:14;;;;;;;;;;;;;;;;;;;;;
2021/05/26 22:12:36;;;;;;;;;;;;;;;;;;;;;
2021/05/26 22:19:01;;;;;;;;;;;;;;;;;;;;;
2021/05/26 22:21:30;;;;;;;9.65;4.80;;;11.70;92.10;;;;;;6184982;23;20092;-86
2021/05/26 22:27:11;;;;;;;;;;;;;;;;;;;;;
2021/05/26 22:30:05;;;;;;;14.15;5.32;;;11.70;92.20;;;;;;6185962;23;20072;-87
2021/05/26 22:33:00;;;;;;;12.43;5.40;;;11.70;92.20;;;;;;6143372;23;20013;-87
2021/05/26 22:35:53;;;;;;;;;;;;;;;;;;;;;
2021/05/26 22:38:47;;;;;;;12.25;5.53;;;11.70;92.10;;;;;;6216301;23;20084;-87
2021/05/26 22:41:39;;;;;;;;;;;;;;;;;;;;;
2021/05/26 22:44:37;;;;;;;;;;;;;;;;;;;;;
2021/05/26 22:48:07;;;;;;;13.13;6.03;;;11.70;92.20;;;;;;6214875;23;20530;-88
2021/05/26 22:50:56;;;;;;;10.57;5.50;;;11.70;92.10;;;;;;6206953;23;20004;-87
2021/05/26 22:57:12;;;;;;;12.23;5.93;;;11.70;92.10;;;;;;6215075;23;20008;-88
2021/05/26 23:04:26;;;;;;;14.95;6.25;;;11.70;92.10;;;;;;6172360;23;20064;-88
2021/05/26 23:06:42;;;;;;;;;;;;;;;;;;;;;
2021/05/26 23:09:55;;;;;;;12.20;7.20;;;11.70;92.20;;;;;;6215022;23;20080;-87
2021/05/26 23:12:51;;;;;;;;;;;;;;;;;;;;;
2021/05/26 23:21:45;;;;;;;15.82;8.30;;;11.70;92.20;;;;;;6202126;23;20323;-90
2021/05/26 23:24:25;;;;;;;11.40;7.60;;;11.70;92.20;;;;;;6214380;23;20442;-87
2021/05/26 23:27:22;;;;;;;16.17;8.88;;;11.70;92.20;;;;;;6213329;23;20015;-88
2021/05/26 23:30:30;;;;;;;;;;;;;;;;;;;;;
2021/05/26 23:33:33;;;;;;;16.30;8.25;;;11.70;92.20;;;;;;6213713;23;20092;-87
2021/05/26 23:36:27;;;;;;;18.13;9.48;;;11.70;92.20;;;;;;6189187;23;20005;-89
2021/05/26 23:39:27;;;;;;;19.05;9.25;;;11.70;92.20;;;;;;6213603;23;20011;-88
2021/05/26 23:42:44;;;;;;;15.98;9.18;;;11.70;92.20;;;;;;6190944;23;20398;-88
2021/05/26 23:45:34;;;;;;;;;;;;;;;;;;;;;
2021/05/26 23:48:30;;;;;;;;;;;;;;;;;;;;;
2021/05/26 23:54:22;;;;;;;19.10;9.82;;;11.70;92.00;;;;;;6215330;23;20078;-87
2021/05/26 23:57:26;;;;;;;16.38;9.50;;;11.60;92.00;;;;;;6190479;23;20019;-88
